createdAt,value
2022-12-10T00:00:10.399Z,24.73
2022-12-10T00:04:19.343Z,27.23
2022-12-10T00:08:22.598Z,26.60
2022-12-10T00:12:26.336Z,22.83
2022-12-10T00:16:34.934Z,27.25
2022-12-10T00:20:41.136Z,22.60
2022-12-10T00:24:44.147Z,23.38
2022-12-10T00:28:49.144Z,27.00
2022-12-10T00:32:55.123Z,20.08
2022-12-10T00:37:00.218Z,24.77
2022-12-10T00:41:04.922Z,17.92
2022-12-10T00:45:08.927Z,25.90
2022-12-10T00:49:13.152Z,21.23
2022-12-10T00:53:18.028Z,23.63
2022-12-10T00:57:21.533Z,24.73
2022-12-10T01:01:29.922Z,24.65
2022-12-10T01:05:33.106Z,24.90
2022-12-10T01:09:38.602Z,22.58
2022-12-10T01:13:42.908Z,25.88
2022-12-10T01:17:46.518Z,21.67
2022-12-10T01:21:53.475Z,27.65
2022-12-10T01:26:01.696Z,27.05
2022-12-10T01:30:07.023Z,21.35
2022-12-10T01:34:14.413Z,22.42
2022-12-10T01:38:17.866Z,22.90
2022-12-10T01:42:22.931Z,22.40
2022-12-10T01:46:28.079Z,23.08
2022-12-10T01:50:31.890Z,25.25
2022-12-10T01:54:38.165Z,25.13
2022-12-10T01:58:42.841Z,25.75
2022-12-10T02:02:52.222Z,23.27
2022-12-10T02:07:00.932Z,27.27
2022-12-10T02:11:17.929Z,21.92
2022-12-10T02:15:27.975Z,20.52
2022-12-10T02:19:49.687Z,26.63
2022-12-10T02:24:00.493Z,29.67
2022-12-10T02:28:13.513Z,23.83
2022-12-10T02:32:22.346Z,27.17
2022-12-10T02:36:30.086Z,21.73
2022-12-10T02:40:37.383Z,26.45
2022-12-10T02:44:44.545Z,27.55
2022-12-10T02:48:51.990Z,22.77
2022-12-10T02:52:55.068Z,22.40
2022-12-10T02:57:03.348Z,24.67
2022-12-10T03:01:15.094Z,29.10
2022-12-10T03:05:25.594Z,21.40
2022-12-10T03:09:39.930Z,24.65
2022-12-10T03:13:49.991Z,24.75
2022-12-10T03:17:54.441Z,31.88
2022-12-10T03:22:01.191Z,23.70
2022-12-10T03:26:06.739Z,25.50
2022-12-10T03:30:11.826Z,28.55
2022-12-10T03:34:16.584Z,21.65
2022-12-10T03:38:22.060Z,23.85
2022-12-10T03:42:25.694Z,26.27
2022-12-10T03:46:36.818Z,26.27
2022-12-10T03:50:40.376Z,25.10
2022-12-10T03:54:44.963Z,22.13
2022-12-10T03:58:48.720Z,19.77
2022-12-10T04:02:52.326Z,20.85
2022-12-10T04:06:56.001Z,23.83
2022-12-10T04:11:06.785Z,21.73
2022-12-10T04:15:29.275Z,17.83
2022-12-10T04:19:32.825Z,19.80
2022-12-10T04:23:54.066Z,22.98
2022-12-10T04:27:59.707Z,22.95
2022-12-10T04:32:03.071Z,22.67
2022-12-10T04:36:07.152Z,23.10
2022-12-10T04:40:12.004Z,28.27
2022-12-10T04:44:17.775Z,20.75
2022-12-10T04:48:21.457Z,21.33
2022-12-10T04:52:24.508Z,29.55
2022-12-10T04:56:28.449Z,29.23
2022-12-10T05:00:33.633Z,21.90
2022-12-10T05:04:37.379Z,23.02
2022-12-10T05:08:42.445Z,30.38
2022-12-10T05:12:45.472Z,26.30
2022-12-10T05:16:52.702Z,21.77
2022-12-10T05:20:56.275Z,27.60
2022-12-10T05:24:59.897Z,22.80
2022-12-10T05:29:03.060Z,32.97
2022-12-10T05:33:07.474Z,27.58
2022-12-10T05:37:11.324Z,20.33
2022-12-10T05:41:17.207Z,25.08
2022-12-10T05:45:20.718Z,33.20
2022-12-10T05:49:25.813Z,23.65
2022-12-10T05:53:29.476Z,23.42
2022-12-10T05:57:33.050Z,27.75
2022-12-10T06:01:37.623Z,26.80
2022-12-10T06:05:43.230Z,23.77
2022-12-10T06:09:46.866Z,23.85
2022-12-10T06:13:55.830Z,24.52
2022-12-10T06:18:00.113Z,22.95
2022-12-10T06:22:06.471Z,32.75
2022-12-10T06:26:11.929Z,34.08
2022-12-10T06:30:15.799Z,26.60
2022-12-10T06:34:19.409Z,22.05
2022-12-10T06:38:24.099Z,18.45
2022-12-10T06:42:27.744Z,25.95
2022-12-10T06:46:31.257Z,24.30
2022-12-10T06:50:34.863Z,16.73
2022-12-10T06:54:39.312Z,27.60
2022-12-10T06:58:43.634Z,29.13
2022-12-10T07:02:47.195Z,23.60
2022-12-10T07:06:50.742Z,25.70
2022-12-10T07:10:56.309Z,27.33
2022-12-10T07:14:59.771Z,21.27
2022-12-10T07:19:03.939Z,30.90
2022-12-10T07:23:07.473Z,20.27
2022-12-10T07:27:14.404Z,23.73
2022-12-10T07:31:17.586Z,30.02
2022-12-10T07:35:21.318Z,23.80
2022-12-10T07:39:24.752Z,28.17
2022-12-10T07:43:29.655Z,33.80
2022-12-10T07:47:32.922Z,32.30
2022-12-10T07:51:36.306Z,38.90
2022-12-10T07:55:39.783Z,32.53
2022-12-10T07:59:44.304Z,37.35
2022-12-10T08:03:51.540Z,32.90
2022-12-10T08:08:01.117Z,37.53
2022-12-10T08:12:06.769Z,32.40
2022-12-10T08:16:14.905Z,33.38
2022-12-10T08:20:18.138Z,29.88
2022-12-10T08:24:21.355Z,27.20
2022-12-10T08:28:24.942Z,29.45
2022-12-10T08:32:41.468Z,30.73
2022-12-10T08:36:46.410Z,32.00
2022-12-10T08:40:50.080Z,32.83
2022-12-10T08:44:56.518Z,29.52
2022-12-10T08:49:01.814Z,31.35
2022-12-10T08:53:05.969Z,30.92
2022-12-10T08:57:09.760Z,30.63
2022-12-10T09:01:16.043Z,34.08
2022-12-10T09:05:20.811Z,32.55
2022-12-10T09:09:24.003Z,30.02
2022-12-10T09:13:27.830Z,29.15
2022-12-10T09:17:31.311Z,28.75
2022-12-10T09:21:36.375Z,22.30
2022-12-10T09:25:39.398Z,29.52
2022-12-10T09:29:42.973Z,29.63
2022-12-10T09:33:46.840Z,28.42
2022-12-10T09:37:51.633Z,29.30
2022-12-10T09:42:10.958Z,30.55
2022-12-10T09:46:24.799Z,26.98
2022-12-10T09:50:35.057Z,31.67
2022-12-10T10:05:30.445Z,25.55
2022-12-10T10:09:38.597Z,27.98
2022-12-10T10:13:45.164Z,27.77
2022-12-10T10:17:51.183Z,23.80
2022-12-10T10:21:56.441Z,27.50
2022-12-10T10:26:00.056Z,25.63
2022-12-10T10:30:06.160Z,20.70
2022-12-10T10:34:18.066Z,23.33
2022-12-10T10:38:25.629Z,25.30
2022-12-10T10:42:38.610Z,25.15
2022-12-10T10:46:43.545Z,36.25
2022-12-10T10:50:49.587Z,32.40
2022-12-10T10:54:54.584Z,25.55
2022-12-10T10:59:00.473Z,22.00
2022-12-10T11:03:07.987Z,27.48
2022-12-10T11:07:23.245Z,28.13
2022-12-10T11:11:36.265Z,22.55
2022-12-10T11:15:41.748Z,23.05
2022-12-10T11:19:46.706Z,26.90
2022-12-10T11:23:54.160Z,24.17
2022-12-10T11:28:07.592Z,26.98
2022-12-10T11:32:23.803Z,27.02
2022-12-10T11:36:39.017Z,23.65
2022-12-10T11:40:49.513Z,19.83
2022-12-10T11:45:02.240Z,27.33
2022-12-10T11:53:49.366Z,27.58
2022-12-10T11:58:06.376Z,19.83
2022-12-10T12:02:35.498Z,20.33
2022-12-10T12:06:55.821Z,27.27
2022-12-10T12:11:21.865Z,22.30
2022-12-10T12:15:34.497Z,25.33
2022-12-10T12:19:42.699Z,24.38
2022-12-10T12:23:56.626Z,26.55
2022-12-10T12:28:13.117Z,30.30
2022-12-10T12:32:22.239Z,26.42
2022-12-10T12:36:30.989Z,31.30
2022-12-10T12:40:42.499Z,33.70
2022-12-10T12:44:58.607Z,44.35
2022-12-10T12:49:13.262Z,32.55
2022-12-10T12:53:20.823Z,23.60
2022-12-10T12:57:32.875Z,24.40
2022-12-10T13:01:41.933Z,30.98
2022-12-10T13:05:45.740Z,29.50
2022-12-10T13:09:52.590Z,37.78
2022-12-10T13:14:21.540Z,27.20
2022-12-10T13:18:39.007Z,27.48
2022-12-10T13:22:57.790Z,27.48
2022-12-10T13:27:18.713Z,28.05
2022-12-10T13:31:35.345Z,25.15
2022-12-10T13:35:46.367Z,20.00
2022-12-10T13:39:56.111Z,28.17
2022-12-10T13:44:20.880Z,22.55
2022-12-10T13:48:36.099Z,24.30
2022-12-10T13:52:55.308Z,25.85
2022-12-10T13:57:06.884Z,22.20
2022-12-10T14:01:22.753Z,21.38
2022-12-10T14:05:41.440Z,22.50
2022-12-10T14:09:52.998Z,28.05
2022-12-10T14:14:00.980Z,24.83
2022-12-10T14:18:13.502Z,28.42
2022-12-10T14:22:21.887Z,27.38
2022-12-10T14:26:30.902Z,29.92
2022-12-10T14:30:34.706Z,24.98
2022-12-10T14:34:39.841Z,26.27
2022-12-10T14:38:43.504Z,22.00
2022-12-10T14:42:47.048Z,24.70
2022-12-10T14:46:52.378Z,25.02
2022-12-10T14:51:06.634Z,20.60
2022-12-10T14:55:16.434Z,34.03
2022-12-10T14:59:24.533Z,37.63
2022-12-10T15:03:32.028Z,32.88
2022-12-10T15:07:38.631Z,39.13
2022-12-10T15:11:42.706Z,43.22
2022-12-10T15:15:50.354Z,40.33
2022-12-10T15:19:54.134Z,37.97
2022-12-10T15:24:18.422Z,38.15
2022-12-10T15:28:28.020Z,37.50
2022-12-10T15:32:31.885Z,40.50
2022-12-10T15:36:42.142Z,46.20
2022-12-10T15:40:46.761Z,46.60
2022-12-10T15:44:50.875Z,44.53
2022-12-10T15:48:54.622Z,54.35
2022-12-10T15:52:59.936Z,35.70
2022-12-10T15:57:13.831Z,36.60
2022-12-10T16:01:18.727Z,41.92
2022-12-10T16:05:24.373Z,28.90
2022-12-10T16:09:27.846Z,43.85
2022-12-10T16:13:35.459Z,33.30
2022-12-10T16:17:39.064Z,37.45
2022-12-10T16:21:44.906Z,32.58
2022-12-10T16:25:51.556Z,34.47
2022-12-10T16:29:56.599Z,34.63
2022-12-10T16:34:01.747Z,36.95
2022-12-10T16:38:10.460Z,41.13
2022-12-10T16:42:29.582Z,31.58
2022-12-10T16:46:34.037Z,43.08
2022-12-10T16:50:38.135Z,34.05
2022-12-10T16:54:41.603Z,28.50
2022-12-10T16:58:45.686Z,33.33
2022-12-10T17:02:51.322Z,27.08
2022-12-10T17:06:54.562Z,35.53
2022-12-10T17:11:25.150Z,39.60
2022-12-10T17:15:28.736Z,35.92
2022-12-10T17:19:35.032Z,36.90
2022-12-10T17:23:38.192Z,34.40
2022-12-10T17:27:42.035Z,29.40
2022-12-10T17:31:46.108Z,37.58
2022-12-10T17:35:53.162Z,23.85
2022-12-10T17:39:56.387Z,32.10
2022-12-10T17:44:00.378Z,28.20
2022-12-10T17:48:03.888Z,30.80
2022-12-10T17:52:09.142Z,26.40
2022-12-10T17:56:17.476Z,36.38
2022-12-10T18:00:23.830Z,23.80
2022-12-10T18:04:27.049Z,28.90
2022-12-10T18:08:32.351Z,31.08
2022-12-10T18:12:37.344Z,29.85
2022-12-10T18:16:40.466Z,23.60
2022-12-10T18:20:46.762Z,23.60
2022-12-10T18:24:55.645Z,20.95
2022-12-10T18:29:01.310Z,18.83
2022-12-10T18:33:04.588Z,23.08
2022-12-10T18:37:09.267Z,23.83
2022-12-10T18:41:16.853Z,26.63
2022-12-10T18:45:20.681Z,32.33
2022-12-10T18:49:25.686Z,30.02
2022-12-10T18:53:30.095Z,20.05
2022-12-10T18:57:40.557Z,29.15
2022-12-10T19:01:47.735Z,24.02
2022-12-10T19:05:53.480Z,28.45
2022-12-10T19:09:57.242Z,28.90
2022-12-10T19:14:04.396Z,18.10
2022-12-10T19:18:11.150Z,21.95
2022-12-10T19:22:15.320Z,23.77
2022-12-10T19:26:27.899Z,24.67
2022-12-10T19:30:32.860Z,21.23
2022-12-10T19:34:37.417Z,31.27
2022-12-10T19:38:40.944Z,23.65
2022-12-10T19:42:46.427Z,25.27
2022-12-10T19:46:51.591Z,19.85
2022-12-10T19:50:55.671Z,22.48
2022-12-10T19:54:59.392Z,21.98
2022-12-10T19:59:14.111Z,25.45
2022-12-10T20:03:21.181Z,29.70
2022-12-10T20:07:27.256Z,23.58
2022-12-10T20:11:33.494Z,16.83
2022-12-10T20:15:39.134Z,17.42
2022-12-10T20:19:50.422Z,19.48
2022-12-10T20:23:59.637Z,19.00
2022-12-10T20:28:08.402Z,25.65
2022-12-10T20:32:12.526Z,18.95
2022-12-10T20:36:22.055Z,17.75
2022-12-10T20:40:32.433Z,15.35
2022-12-10T20:44:36.330Z,19.10
2022-12-10T20:48:40.608Z,24.40
2022-12-10T20:52:45.533Z,14.95
2022-12-10T20:56:48.715Z,22.90
2022-12-10T21:00:52.260Z,17.45
2022-12-10T21:04:56.919Z,20.33
2022-12-10T21:09:01.388Z,22.13
2022-12-10T21:13:06.322Z,17.92
2022-12-10T21:17:10.170Z,17.60
2022-12-10T21:21:17.856Z,18.45
2022-12-10T21:25:27.771Z,19.65
2022-12-10T21:29:33.511Z,18.08
2022-12-10T21:33:39.856Z,16.35
2022-12-10T21:37:43.667Z,20.10
2022-12-10T21:42:06.966Z,20.95
2022-12-10T21:50:16.194Z,14.43
2022-12-10T21:54:19.697Z,17.27
2022-12-10T21:58:25.353Z,16.70
2022-12-10T22:02:29.916Z,20.45
2022-12-10T22:06:40.806Z,18.35
2022-12-10T22:10:49.889Z,18.00
2022-12-10T22:14:55.408Z,15.48
2022-12-10T22:18:58.653Z,14.55
2022-12-10T22:23:01.726Z,22.38
2022-12-10T22:27:05.406Z,19.35
2022-12-10T22:31:10.552Z,20.73
2022-12-10T22:35:15.071Z,23.13
2022-12-10T22:39:18.975Z,15.73
2022-12-10T22:43:51.441Z,26.42
2022-12-10T22:47:47.153Z,19.13
2022-12-10T22:51:50.220Z,27.48
2022-12-10T22:55:59.468Z,18.52
2022-12-10T23:00:02.788Z,14.45
2022-12-10T23:04:08.020Z,20.98
2022-12-10T23:08:11.798Z,17.13
2022-12-10T23:12:33.026Z,17.48
2022-12-10T23:16:36.179Z,17.00
2022-12-10T23:20:49.013Z,17.13
2022-12-10T23:24:53.883Z,15.70
2022-12-10T23:28:57.430Z,14.90
2022-12-10T23:33:03.748Z,17.23
2022-12-10T23:37:13.256Z,18.30
2022-12-10T23:41:17.285Z,18.95
2022-12-10T23:45:23.754Z,14.27
2022-12-10T23:49:27.407Z,13.65
2022-12-10T23:53:32.870Z,20.40
2022-12-10T23:57:37.148Z,14.70
